createdAt,value
2023-03-26T00:01:37.629Z,2.53
2023-03-26T00:04:42.732Z,2.55
2023-03-26T00:07:46.297Z,2.60
2023-03-26T00:10:49.741Z,2.38
2023-03-26T00:13:57.070Z,2.42
2023-03-26T00:17:00.504Z,2.63
2023-03-26T00:20:04.298Z,2.30
2023-03-26T00:23:08.944Z,2.90
2023-03-26T00:26:12.976Z,3.08
2023-03-26T00:29:17.047Z,2.83
2023-03-26T00:32:22.266Z,3.00
2023-03-26T00:35:25.859Z,2.53
2023-03-26T00:38:30.154Z,2.88
2023-03-26T00:41:37.131Z,2.45
2023-03-26T00:44:41.194Z,2.30
2023-03-26T00:47:45.493Z,2.30
2023-03-26T00:50:50.510Z,2.13
2023-03-26T00:53:54.275Z,2.42
2023-03-26T00:56:59.964Z,2.25
2023-03-26T01:00:07.200Z,2.13
2023-03-26T01:03:24.825Z,2.20
2023-03-26T01:06:36.490Z,1.85
2023-03-26T01:09:45.191Z,2.33
2023-03-26T01:12:49.677Z,2.45
2023-03-26T01:15:53.634Z,2.25
2023-03-26T01:18:58.981Z,2.00
2023-03-26T01:22:02.835Z,2.50
2023-03-26T01:25:07.385Z,2.38
2023-03-26T01:28:12.635Z,2.20
2023-03-26T01:31:37.248Z,2.30
2023-03-26T01:34:43.912Z,2.40
2023-03-26T01:38:02.698Z,2.22
2023-03-26T01:41:30.648Z,2.38
2023-03-26T01:44:44.943Z,2.38
2023-03-26T01:47:49.270Z,2.25
2023-03-26T01:50:56.431Z,2.60
2023-03-26T01:54:05.665Z,2.55
2023-03-26T01:57:31.507Z,2.50
2023-03-26T02:00:48.078Z,2.25
2023-03-26T02:03:59.171Z,2.38
2023-03-26T02:07:28.836Z,2.40
2023-03-26T02:10:38.865Z,2.78
2023-03-26T02:13:45.630Z,2.75
2023-03-26T02:16:49.147Z,2.97
2023-03-26T02:19:54.293Z,2.55
2023-03-26T02:22:58.758Z,2.73
2023-03-26T02:26:08.606Z,2.38
2023-03-26T02:29:20.587Z,2.95
2023-03-26T02:32:27.299Z,2.75
2023-03-26T02:35:32.289Z,3.10
2023-03-26T02:38:37.938Z,2.93
2023-03-26T02:41:41.834Z,3.03
2023-03-26T02:44:47.591Z,3.10
2023-03-26T02:47:57.714Z,2.70
2023-03-26T02:51:20.374Z,2.65
2023-03-26T02:54:35.693Z,3.00
2023-03-26T02:57:59.387Z,2.70
2023-03-26T03:01:09.651Z,2.88
2023-03-26T03:04:23.082Z,2.65
2023-03-26T03:07:26.602Z,2.50
2023-03-26T03:10:32.784Z,2.20
2023-03-26T03:13:53.312Z,2.28
2023-03-26T03:17:02.700Z,2.42
2023-03-26T03:20:09.478Z,2.30
2023-03-26T03:23:15.405Z,2.33
2023-03-26T03:26:21.878Z,1.90
2023-03-26T03:29:29.642Z,2.22
2023-03-26T03:32:37.492Z,2.03
2023-03-26T03:35:42.740Z,2.15
2023-03-26T03:38:46.230Z,2.03
2023-03-26T03:41:53.981Z,1.80
2023-03-26T03:44:57.557Z,1.80
2023-03-26T03:48:19.335Z,1.63
2023-03-26T03:51:24.850Z,1.50
2023-03-26T03:54:36.803Z,1.80
2023-03-26T03:58:09.468Z,1.70
2023-03-26T04:01:13.616Z,1.67
2023-03-26T04:04:34.505Z,1.42
2023-03-26T04:07:42.754Z,1.30
2023-03-26T04:11:06.516Z,1.45
2023-03-26T04:14:36.315Z,1.60
2023-03-26T04:17:54.265Z,1.60
2023-03-26T04:21:02.540Z,1.70
2023-03-26T04:24:07.532Z,1.45
2023-03-26T04:27:49.561Z,1.20
2023-03-26T04:31:29.318Z,1.50
2023-03-26T04:34:36.438Z,1.40
2023-03-26T04:37:46.210Z,1.40
2023-03-26T04:41:19.026Z,1.48
2023-03-26T04:44:22.938Z,1.42
2023-03-26T04:47:43.701Z,1.40
2023-03-26T04:50:49.527Z,1.60
2023-03-26T04:53:58.492Z,1.65
2023-03-26T04:57:27.960Z,1.15
2023-03-26T05:00:39.878Z,1.33
2023-03-26T05:03:45.954Z,1.40
2023-03-26T05:06:51.776Z,1.20
2023-03-26T05:10:03.599Z,1.40
2023-03-26T05:13:14.202Z,1.50
2023-03-26T05:16:24.189Z,1.75
2023-03-26T05:19:35.154Z,1.60
2023-03-26T05:22:39.086Z,1.50
2023-03-26T05:25:52.065Z,2.80
2023-03-26T05:28:58.399Z,1.60
2023-03-26T05:32:19.104Z,2.05
2023-03-26T05:35:23.730Z,1.50
2023-03-26T05:38:29.119Z,1.60
2023-03-26T05:41:33.946Z,1.45
2023-03-26T05:44:37.350Z,6.20
2023-03-26T05:47:51.507Z,8.85
2023-03-26T05:50:57.578Z,4.83
2023-03-26T05:54:03.584Z,3.08
2023-03-26T05:57:10.173Z,1.90
2023-03-26T06:00:33.914Z,1.80
2023-03-26T06:03:41.375Z,1.83
2023-03-26T06:06:52.889Z,1.97
2023-03-26T06:09:56.994Z,1.85
2023-03-26T06:13:00.433Z,2.10
2023-03-26T06:16:04.194Z,2.08
2023-03-26T06:19:10.627Z,2.50
2023-03-26T06:22:34.343Z,2.50
2023-03-26T06:25:58.136Z,2.85
2023-03-26T06:29:37.266Z,2.85
2023-03-26T06:33:04.104Z,2.72
2023-03-26T06:36:13.786Z,2.50
2023-03-26T06:39:17.203Z,2.80
2023-03-26T06:43:06.528Z,3.13
2023-03-26T06:46:17.468Z,3.13
2023-03-26T06:49:39.431Z,2.70
2023-03-26T06:53:03.162Z,2.50
2023-03-26T06:56:32.826Z,2.50
2023-03-26T06:59:49.676Z,2.95
2023-03-26T07:03:11.664Z,2.80
2023-03-26T07:06:33.580Z,2.22
2023-03-26T07:09:55.793Z,2.55
2023-03-26T07:13:17.783Z,2.43
2023-03-26T07:16:53.837Z,2.60
2023-03-26T07:20:09.520Z,2.03
2023-03-26T07:23:15.657Z,1.88
2023-03-26T07:27:02.421Z,2.40
2023-03-26T07:30:17.818Z,2.27
2023-03-26T07:34:04.486Z,2.58
2023-03-26T07:37:55.984Z,2.22
2023-03-26T07:41:32.979Z,1.98
2023-03-26T07:45:17.330Z,1.92
2023-03-26T07:48:48.047Z,1.90
2023-03-26T07:51:58.986Z,1.90
2023-03-26T07:55:23.082Z,2.30
2023-03-26T07:58:52.320Z,1.90
2023-03-26T08:02:26.682Z,2.17
2023-03-26T08:06:17.672Z,2.10
2023-03-26T08:09:42.681Z,1.50
2023-03-26T08:13:31.237Z,1.98
2023-03-26T08:17:17.217Z,1.50
2023-03-26T08:20:54.543Z,1.77
2023-03-26T08:24:22.889Z,1.43
2023-03-26T08:27:37.947Z,1.50
2023-03-26T08:30:41.835Z,1.83
2023-03-26T08:33:45.375Z,1.60
2023-03-26T08:36:48.830Z,1.77
2023-03-26T08:39:52.283Z,1.83
2023-03-26T08:43:30.409Z,1.48
2023-03-26T08:46:36.680Z,1.80
2023-03-26T08:49:56.532Z,1.52
2023-03-26T08:53:17.877Z,1.73
2023-03-26T08:57:01.102Z,1.60
2023-03-26T09:00:26.640Z,1.35
2023-03-26T09:03:38.604Z,1.30
2023-03-26T09:07:06.899Z,1.40
2023-03-26T09:10:29.310Z,1.50
2023-03-26T09:13:51.538Z,1.30
2023-03-26T09:17:13.251Z,1.35
2023-03-26T09:20:51.236Z,1.40
2023-03-26T09:23:57.653Z,1.58
2023-03-26T09:27:35.075Z,1.40
2023-03-26T09:31:05.743Z,1.60
2023-03-26T09:35:00.590Z,1.70
2023-03-26T09:38:30.482Z,1.40
2023-03-26T09:41:37.318Z,1.55
2023-03-26T09:45:28.810Z,1.55
2023-03-26T09:48:48.668Z,1.17
2023-03-26T09:52:12.005Z,1.20
2023-03-26T09:55:15.615Z,1.50
2023-03-26T09:59:04.484Z,1.60
2023-03-26T10:02:46.234Z,1.50
2023-03-26T10:06:04.667Z,1.50
2023-03-26T10:09:08.096Z,1.42
2023-03-26T10:12:29.868Z,1.38
2023-03-26T10:15:41.349Z,1.90
2023-03-26T10:19:19.909Z,1.73
2023-03-26T10:22:50.380Z,1.30
2023-03-26T10:26:00.606Z,1.20
2023-03-26T10:29:34.536Z,1.38
2023-03-26T10:33:03.712Z,1.02
2023-03-26T10:36:16.893Z,1.42
2023-03-26T10:40:02.107Z,1.97
2023-03-26T10:43:57.813Z,1.13
2023-03-26T10:47:34.221Z,2.17
2023-03-26T10:50:55.181Z,2.53
2023-03-26T10:54:43.003Z,1.60
2023-03-26T10:57:52.832Z,1.87
2023-03-26T11:01:06.049Z,1.10
2023-03-26T11:04:55.149Z,1.60
2023-03-26T11:08:20.972Z,2.03
2023-03-26T11:11:52.508Z,1.25
2023-03-26T11:15:22.060Z,1.00
2023-03-26T11:18:50.125Z,1.20
2023-03-26T11:22:38.150Z,1.00
2023-03-26T11:25:59.253Z,1.00
2023-03-26T11:29:33.488Z,1.35
2023-03-26T11:32:42.966Z,1.00
2023-03-26T11:35:56.993Z,0.95
2023-03-26T11:39:04.716Z,1.20
2023-03-26T11:42:14.070Z,1.10
2023-03-26T11:45:25.610Z,1.23
2023-03-26T11:48:35.925Z,1.10
2023-03-26T11:51:41.593Z,1.00
2023-03-26T11:54:48.558Z,1.20
2023-03-26T11:57:58.306Z,1.30
2023-03-26T12:01:13.112Z,1.52
2023-03-26T12:04:19.474Z,1.40
2023-03-26T12:08:12.640Z,1.50
2023-03-26T12:11:18.040Z,1.60
2023-03-26T12:14:28.420Z,1.30
2023-03-26T12:17:37.684Z,1.60
2023-03-26T12:20:42.713Z,1.20
2023-03-26T12:24:02.626Z,1.80
2023-03-26T12:27:08.833Z,2.65
2023-03-26T12:30:21.788Z,1.95
2023-03-26T12:33:34.300Z,1.70
2023-03-26T12:36:39.219Z,1.80
2023-03-26T12:40:09.079Z,1.60
2023-03-26T12:44:56.032Z,1.30
2023-03-26T12:47:55.233Z,1.20
2023-03-26T12:51:04.021Z,3.00
2023-03-26T12:54:23.630Z,1.57
2023-03-26T12:57:40.731Z,1.95
2023-03-26T13:01:16.037Z,1.63
2023-03-26T13:04:54.939Z,0.95
2023-03-26T13:08:32.800Z,1.83
2023-03-26T13:12:01.472Z,1.10
2023-03-26T13:15:25.764Z,1.50
2023-03-26T13:18:53.298Z,1.95
2023-03-26T13:22:33.728Z,1.20
2023-03-26T13:25:52.645Z,1.50
2023-03-26T13:29:11.195Z,0.97
2023-03-26T13:32:46.952Z,1.10
2023-03-26T13:36:23.792Z,1.17
2023-03-26T13:39:50.278Z,1.30
2023-03-26T13:43:19.311Z,1.27
2023-03-26T13:46:45.308Z,0.90
2023-03-26T13:50:25.499Z,1.30
2023-03-26T13:53:38.532Z,1.02
2023-03-26T13:56:50.421Z,1.20
2023-03-26T13:59:59.503Z,1.17
2023-03-26T14:03:12.915Z,0.60
2023-03-26T14:06:47.211Z,0.82
2023-03-26T14:10:12.002Z,1.60
2023-03-26T14:13:26.925Z,1.40
2023-03-26T14:16:44.403Z,1.50
2023-03-26T14:20:13.898Z,1.07
2023-03-26T14:23:51.066Z,1.35
2023-03-26T14:27:00.557Z,1.08
2023-03-26T14:30:34.506Z,1.35
2023-03-26T14:34:16.987Z,2.30
2023-03-26T14:37:39.304Z,7.10
2023-03-26T14:41:02.241Z,4.35
2023-03-26T14:44:27.099Z,7.07
2023-03-26T14:47:32.390Z,4.45
2023-03-26T14:51:13.792Z,2.85
2023-03-26T14:54:22.949Z,2.40
2023-03-26T14:57:51.060Z,2.00
2023-03-26T15:01:44.176Z,2.03
2023-03-26T15:05:07.288Z,1.92
2023-03-26T15:08:33.576Z,2.10
2023-03-26T15:11:50.487Z,1.50
2023-03-26T15:15:28.770Z,1.77
2023-03-26T15:18:51.177Z,0.90
2023-03-26T15:22:32.018Z,1.00
2023-03-26T15:25:56.930Z,1.10
2023-03-26T15:29:24.579Z,2.10
2023-03-26T15:32:40.596Z,2.40
2023-03-26T15:35:56.970Z,1.92
2023-03-26T15:39:23.572Z,3.00
2023-03-26T15:42:45.745Z,2.55
2023-03-26T15:46:10.984Z,3.47
2023-03-26T15:49:39.902Z,2.40
2023-03-26T15:53:34.199Z,2.30
2023-03-26T15:56:43.128Z,1.70
2023-03-26T16:00:24.885Z,1.73
2023-03-26T16:03:43.839Z,1.23
2023-03-26T16:06:48.295Z,1.70
2023-03-26T16:10:10.798Z,1.30
2023-03-26T16:13:34.551Z,1.00
2023-03-26T16:16:53.130Z,1.45
2023-03-26T16:20:19.872Z,1.60
2023-03-26T16:23:47.950Z,1.17
2023-03-26T16:27:15.288Z,1.17
2023-03-26T16:30:30.831Z,1.08
2023-03-26T16:33:49.838Z,1.58
2023-03-26T16:36:54.674Z,1.30
2023-03-26T16:40:21.566Z,1.10
2023-03-26T16:43:41.229Z,1.95
2023-03-26T16:46:59.376Z,4.13
2023-03-26T16:50:32.177Z,13.60
2023-03-26T16:53:54.199Z,13.57
2023-03-26T16:57:10.758Z,6.93
2023-03-26T17:00:29.265Z,3.10
2023-03-26T17:03:54.736Z,3.70
2023-03-26T17:07:04.263Z,4.85
2023-03-26T17:10:32.044Z,6.07
2023-03-26T17:13:48.264Z,6.47
2023-03-26T17:17:22.637Z,5.57
2023-03-26T17:20:37.081Z,6.28
2023-03-26T17:24:00.580Z,8.55
2023-03-26T17:27:34.169Z,9.63
2023-03-26T17:31:06.788Z,8.75
2023-03-26T17:34:31.941Z,7.40
2023-03-26T17:37:45.993Z,8.07
2023-03-26T17:40:58.969Z,5.13
2023-03-26T17:44:26.834Z,4.40
2023-03-26T17:47:58.982Z,3.90
2023-03-26T17:51:40.323Z,4.22
2023-03-26T17:54:50.569Z,6.72
2023-03-26T17:58:02.404Z,9.40
2023-03-26T18:01:32.312Z,11.87
2023-03-26T18:04:39.053Z,19.80
2023-03-26T18:08:22.979Z,19.30
2023-03-26T18:11:41.346Z,17.75
2023-03-26T18:14:56.546Z,14.55
2023-03-26T18:18:27.354Z,15.90
2023-03-26T18:21:37.584Z,15.32
2023-03-26T18:24:44.249Z,13.50
2023-03-26T18:27:48.644Z,12.15
2023-03-26T18:30:52.389Z,9.05
2023-03-26T18:33:59.395Z,9.87
2023-03-26T18:37:17.883Z,9.10
2023-03-26T18:40:23.860Z,13.40
2023-03-26T18:43:34.851Z,13.48
2023-03-26T18:46:39.732Z,6.10
2023-03-26T18:49:48.463Z,4.20
2023-03-26T18:52:52.603Z,7.88
2023-03-26T18:55:57.618Z,6.20
2023-03-26T18:59:04.157Z,4.43
2023-03-26T19:02:18.211Z,2.40
2023-03-26T19:05:21.992Z,2.30
2023-03-26T19:08:27.471Z,1.75
2023-03-26T19:11:31.551Z,2.40
2023-03-26T19:14:51.125Z,2.53
2023-03-26T19:18:03.575Z,2.60
2023-03-26T19:21:09.827Z,3.87
2023-03-26T19:24:14.959Z,3.40
2023-03-26T19:27:19.455Z,3.03
2023-03-26T19:30:35.684Z,3.25
2023-03-26T19:33:42.291Z,3.28
2023-03-26T19:37:01.072Z,5.07
2023-03-26T19:40:22.713Z,3.20
2023-03-26T19:43:27.110Z,3.80
2023-03-26T19:46:34.658Z,2.80
2023-03-26T19:50:13.468Z,2.70
2023-03-26T19:53:24.383Z,1.50
2023-03-26T19:56:28.834Z,1.95
2023-03-26T19:59:32.806Z,1.80
2023-03-26T20:02:36.796Z,1.90
2023-03-26T20:05:40.616Z,1.80
2023-03-26T20:08:45.977Z,1.50
2023-03-26T20:11:52.629Z,1.75
2023-03-26T20:14:56.941Z,1.65
2023-03-26T20:18:01.008Z,1.35
2023-03-26T20:21:13.287Z,1.50
2023-03-26T20:24:19.091Z,1.43
2023-03-26T20:27:22.557Z,1.50
2023-03-26T20:30:37.351Z,1.40
2023-03-26T20:33:41.462Z,1.55
2023-03-26T20:36:46.357Z,1.30
2023-03-26T20:39:50.125Z,1.60
2023-03-26T20:42:53.502Z,1.20
2023-03-26T20:45:58.620Z,1.20
2023-03-26T20:49:02.304Z,1.25
2023-03-26T20:52:06.030Z,1.25
2023-03-26T20:55:14.126Z,1.60
2023-03-26T20:58:31.026Z,1.42
2023-03-26T21:01:35.867Z,1.80
2023-03-26T21:04:39.372Z,1.60
2023-03-26T21:07:44.569Z,1.48
2023-03-26T21:10:48.670Z,1.43
2023-03-26T21:14:15.781Z,1.42
2023-03-26T21:17:22.276Z,1.85
2023-03-26T21:20:30.074Z,1.70
2023-03-26T21:23:42.719Z,1.95
2023-03-26T21:27:02.020Z,2.10
2023-03-26T21:30:14.474Z,2.70
2023-03-26T21:33:18.866Z,2.78
2023-03-26T21:36:23.189Z,2.60
2023-03-26T21:39:28.045Z,3.08
2023-03-26T21:42:31.646Z,3.13
2023-03-26T21:45:35.427Z,2.97
2023-03-26T21:48:39.004Z,2.80
2023-03-26T21:51:43.298Z,2.72
2023-03-26T21:54:47.841Z,2.40
2023-03-26T21:58:18.921Z,2.07
2023-03-26T22:01:41.071Z,2.45
2023-03-26T22:04:44.454Z,2.50
2023-03-26T22:07:53.747Z,2.13
2023-03-26T22:10:57.693Z,2.08
2023-03-26T22:14:01.654Z,2.00
2023-03-26T22:17:05.562Z,2.20
2023-03-26T22:20:13.090Z,2.10
2023-03-26T22:23:16.954Z,2.15
2023-03-26T22:26:24.793Z,1.77
2023-03-26T22:29:28.276Z,2.20
2023-03-26T22:32:33.578Z,1.92
2023-03-26T22:35:38.039Z,1.92
2023-03-26T22:38:41.602Z,1.70
2023-03-26T22:41:45.129Z,2.28
2023-03-26T22:44:48.608Z,1.60
2023-03-26T22:47:52.784Z,2.00
2023-03-26T22:51:09.266Z,1.92
2023-03-26T22:54:12.736Z,1.73
2023-03-26T22:57:16.593Z,1.98
2023-03-26T23:00:22.215Z,1.80
2023-03-26T23:03:35.098Z,1.80
2023-03-26T23:06:39.033Z,1.73
2023-03-26T23:09:42.893Z,2.08
2023-03-26T23:12:46.276Z,2.30
2023-03-26T23:15:51.150Z,1.87
2023-03-26T23:18:54.769Z,1.95
2023-03-26T23:21:58.314Z,1.60
2023-03-26T23:25:02.016Z,1.75
2023-03-26T23:28:05.843Z,1.92
2023-03-26T23:31:10.987Z,1.70
2023-03-26T23:34:16.374Z,1.77
2023-03-26T23:37:23.448Z,1.70
2023-03-26T23:40:28.907Z,1.80
2023-03-26T23:43:32.919Z,1.63
2023-03-26T23:46:36.430Z,1.67
2023-03-26T23:49:39.890Z,2.03
2023-03-26T23:52:45.536Z,3.00
2023-03-26T23:55:51.258Z,3.05
2023-03-26T23:58:56.635Z,3.30
